sensor_id;sensor_type;location;lat;lon;timestamp;P1;durP1;ratioP1;P2;durP2;ratioP2
36725;SDS011;44936;52.086;5.150;2023-07-22T00:01:31;8.48;;;2.80;;
36725;SDS011;44936;52.086;5.150;2023-07-22T00:03:57;10.05;;;2.85;;
36725;SDS011;44936;52.086;5.150;2023-07-22T00:06:22;8.80;;;3.13;;
36725;SDS011;44936;52.086;5.150;2023-07-22T00:08:49;7.90;;;3.28;;
36725;SDS011;44936;52.086;5.150;2023-07-22T00:11:15;7.07;;;2.83;;
36725;SDS011;44936;52.086;5.150;2023-07-22T00:13:40;8.45;;;2.70;;
36725;SDS011;44936;52.086;5.150;2023-07-22T00:16:06;8.38;;;2.67;;
36725;SDS011;44936;52.086;5.150;2023-07-22T00:18:33;8.55;;;3.00;;
36725;SDS011;44936;52.086;5.150;2023-07-22T00:20:59;10.55;;;3.20;;
36725;SDS011;44936;52.086;5.150;2023-07-22T00:23:24;9.93;;;3.70;;
36725;SDS011;44936;52.086;5.150;2023-07-22T00:25:49;9.38;;;3.33;;
36725;SDS011;44936;52.086;5.150;2023-07-22T00:28:15;10.32;;;3.40;;
36725;SDS011;44936;52.086;5.150;2023-07-22T00:30:41;7.97;;;2.90;;
36725;SDS011;44936;52.086;5.150;2023-07-22T00:33:07;6.32;;;2.63;;
36725;SDS011;44936;52.086;5.150;2023-07-22T00:35:33;8.00;;;2.65;;
36725;SDS011;44936;52.086;5.150;2023-07-22T00:37:59;9.20;;;3.05;;
36725;SDS011;44936;52.086;5.150;2023-07-22T00:40:26;9.13;;;3.20;;
36725;SDS011;44936;52.086;5.150;2023-07-22T00:42:51;8.63;;;3.38;;
36725;SDS011;44936;52.086;5.150;2023-07-22T00:45:17;6.45;;;2.50;;
36725;SDS011;44936;52.086;5.150;2023-07-22T00:47:42;9.57;;;2.95;;
36725;SDS011;44936;52.086;5.150;2023-07-22T00:50:09;8.40;;;2.90;;
36725;SDS011;44936;52.086;5.150;2023-07-22T00:52:35;8.75;;;2.92;;
36725;SDS011;44936;52.086;5.150;2023-07-22T00:55:01;7.65;;;2.83;;
36725;SDS011;44936;52.086;5.150;2023-07-22T00:57:27;10.00;;;3.65;;
36725;SDS011;44936;52.086;5.150;2023-07-22T00:59:53;9.02;;;3.15;;
36725;SDS011;44936;52.086;5.150;2023-07-22T01:02:19;8.13;;;2.78;;
36725;SDS011;44936;52.086;5.150;2023-07-22T01:04:45;8.32;;;2.97;;
36725;SDS011;44936;52.086;5.150;2023-07-22T01:07:11;10.23;;;3.35;;
36725;SDS011;44936;52.086;5.150;2023-07-22T01:09:38;7.18;;;2.95;;
36725;SDS011;44936;52.086;5.150;2023-07-22T01:12:04;8.65;;;3.20;;
36725;SDS011;44936;52.086;5.150;2023-07-22T01:14:33;10.55;;;3.25;;
36725;SDS011;44936;52.086;5.150;2023-07-22T01:17:03;9.65;;;3.28;;
36725;SDS011;44936;52.086;5.150;2023-07-22T01:19:30;6.82;;;2.42;;
36725;SDS011;44936;52.086;5.150;2023-07-22T01:21:59;8.65;;;2.72;;
36725;SDS011;44936;52.086;5.150;2023-07-22T01:24:27;8.75;;;2.38;;
36725;SDS011;44936;52.086;5.150;2023-07-22T01:26:54;8.20;;;3.08;;
36725;SDS011;44936;52.086;5.150;2023-07-22T01:29:19;9.68;;;3.22;;
36725;SDS011;44936;52.086;5.150;2023-07-22T01:31:47;7.50;;;2.58;;
36725;SDS011;44936;52.086;5.150;2023-07-22T01:34:14;6.88;;;2.88;;
36725;SDS011;44936;52.086;5.150;2023-07-22T01:36:39;9.18;;;2.65;;
36725;SDS011;44936;52.086;5.150;2023-07-22T01:39:05;10.38;;;2.88;;
36725;SDS011;44936;52.086;5.150;2023-07-22T01:41:33;9.25;;;2.67;;
36725;SDS011;44936;52.086;5.150;2023-07-22T01:43:58;7.50;;;3.08;;
36725;SDS011;44936;52.086;5.150;2023-07-22T01:46:24;9.23;;;3.03;;
36725;SDS011;44936;52.086;5.150;2023-07-22T01:48:50;10.18;;;3.35;;
36725;SDS011;44936;52.086;5.150;2023-07-22T01:51:15;10.27;;;3.40;;
36725;SDS011;44936;52.086;5.150;2023-07-22T01:53:41;8.02;;;3.05;;
36725;SDS011;44936;52.086;5.150;2023-07-22T01:56:06;8.93;;;2.92;;
36725;SDS011;44936;52.086;5.150;2023-07-22T01:58:32;9.05;;;3.22;;
36725;SDS011;44936;52.086;5.150;2023-07-22T02:00:57;10.40;;;3.60;;
36725;SDS011;44936;52.086;5.150;2023-07-22T02:03:23;8.52;;;3.13;;
36725;SDS011;44936;52.086;5.150;2023-07-22T02:05:48;8.98;;;3.60;;
36725;SDS011;44936;52.086;5.150;2023-07-22T02:08:13;8.77;;;2.85;;
36725;SDS011;44936;52.086;5.150;2023-07-22T02:10:39;10.55;;;3.38;;
36725;SDS011;44936;52.086;5.150;2023-07-22T02:13:04;9.55;;;3.25;;
36725;SDS011;44936;52.086;5.150;2023-07-22T02:15:30;9.38;;;3.08;;
36725;SDS011;44936;52.086;5.150;2023-07-22T02:17:57;8.75;;;3.45;;
36725;SDS011;44936;52.086;5.150;2023-07-22T02:20:22;10.63;;;3.25;;
36725;SDS011;44936;52.086;5.150;2023-07-22T02:22:47;10.52;;;3.80;;
36725;SDS011;44936;52.086;5.150;2023-07-22T02:25:13;6.78;;;2.90;;
36725;SDS011;44936;52.086;5.150;2023-07-22T02:27:40;9.07;;;3.28;;
36725;SDS011;44936;52.086;5.150;2023-07-22T02:30:06;11.73;;;3.58;;
36725;SDS011;44936;52.086;5.150;2023-07-22T02:32:35;9.32;;;3.28;;
36725;SDS011;44936;52.086;5.150;2023-07-22T02:35:01;7.93;;;3.08;;
36725;SDS011;44936;52.086;5.150;2023-07-22T02:37:27;8.30;;;3.25;;
36725;SDS011;44936;52.086;5.150;2023-07-22T02:39:53;7.25;;;3.15;;
36725;SDS011;44936;52.086;5.150;2023-07-22T02:42:20;7.38;;;2.53;;
36725;SDS011;44936;52.086;5.150;2023-07-22T02:44:45;9.70;;;3.60;;
36725;SDS011;44936;52.086;5.150;2023-07-22T02:47:11;7.25;;;3.08;;
36725;SDS011;44936;52.086;5.150;2023-07-22T02:49:37;7.80;;;3.20;;
36725;SDS011;44936;52.086;5.150;2023-07-22T02:52:02;10.25;;;3.55;;
36725;SDS011;44936;52.086;5.150;2023-07-22T02:54:27;8.60;;;2.88;;
36725;SDS011;44936;52.086;5.150;2023-07-22T02:56:53;9.07;;;2.78;;
36725;SDS011;44936;52.086;5.150;2023-07-22T02:59:18;9.18;;;2.60;;
36725;SDS011;44936;52.086;5.150;2023-07-22T03:01:43;12.10;;;3.72;;
36725;SDS011;44936;52.086;5.150;2023-07-22T03:04:09;8.68;;;3.10;;
36725;SDS011;44936;52.086;5.150;2023-07-22T03:06:35;8.95;;;3.33;;
36725;SDS011;44936;52.086;5.150;2023-07-22T03:09:00;6.30;;;2.47;;
36725;SDS011;44936;52.086;5.150;2023-07-22T03:11:25;9.00;;;3.78;;
36725;SDS011;44936;52.086;5.150;2023-07-22T03:13:52;10.50;;;3.47;;
36725;SDS011;44936;52.086;5.150;2023-07-22T03:16:18;7.65;;;3.00;;
36725;SDS011;44936;52.086;5.150;2023-07-22T03:18:44;9.48;;;3.35;;
36725;SDS011;44936;52.086;5.150;2023-07-22T03:21:09;9.65;;;3.38;;
36725;SDS011;44936;52.086;5.150;2023-07-22T03:23:35;9.07;;;3.33;;
36725;SDS011;44936;52.086;5.150;2023-07-22T03:26:00;6.20;;;2.53;;
36725;SDS011;44936;52.086;5.150;2023-07-22T03:28:26;6.95;;;2.95;;
36725;SDS011;44936;52.086;5.150;2023-07-22T03:30:51;7.60;;;3.22;;
36725;SDS011;44936;52.086;5.150;2023-07-22T03:33:18;9.07;;;3.13;;
36725;SDS011;44936;52.086;5.150;2023-07-22T03:35:43;9.57;;;3.05;;
36725;SDS011;44936;52.086;5.150;2023-07-22T03:38:09;10.23;;;3.30;;
36725;SDS011;44936;52.086;5.150;2023-07-22T03:40:34;8.20;;;2.85;;
36725;SDS011;44936;52.086;5.150;2023-07-22T03:43:00;8.80;;;2.60;;
36725;SDS011;44936;52.086;5.150;2023-07-22T03:45:26;6.40;;;2.50;;
36725;SDS011;44936;52.086;5.150;2023-07-22T03:48:01;7.55;;;2.90;;
36725;SDS011;44936;52.086;5.150;2023-07-22T03:50:27;7.47;;;2.90;;
36725;SDS011;44936;52.086;5.150;2023-07-22T03:52:53;7.03;;;2.83;;
36725;SDS011;44936;52.086;5.150;2023-07-22T03:55:18;9.68;;;3.20;;
36725;SDS011;44936;52.086;5.150;2023-07-22T03:57:44;6.95;;;2.50;;
36725;SDS011;44936;52.086;5.150;2023-07-22T04:00:10;8.55;;;2.85;;
36725;SDS011;44936;52.086;5.150;2023-07-22T04:02:36;6.18;;;2.65;;
36725;SDS011;44936;52.086;5.150;2023-07-22T04:05:02;6.50;;;2.70;;
36725;SDS011;44936;52.086;5.150;2023-07-22T04:07:27;6.40;;;2.50;;
36725;SDS011;44936;52.086;5.150;2023-07-22T04:09:52;5.70;;;2.38;;
36725;SDS011;44936;52.086;5.150;2023-07-22T04:12:18;6.10;;;2.90;;
36725;SDS011;44936;52.086;5.150;2023-07-22T04:14:43;7.28;;;3.00;;
36725;SDS011;44936;52.086;5.150;2023-07-22T04:17:08;11.43;;;3.20;;
36725;SDS011;44936;52.086;5.150;2023-07-22T04:19:34;7.18;;;3.05;;
36725;SDS011;44936;52.086;5.150;2023-07-22T04:22:00;7.50;;;2.67;;
36725;SDS011;44936;52.086;5.150;2023-07-22T04:24:29;7.15;;;2.67;;
36725;SDS011;44936;52.086;5.150;2023-07-22T04:26:55;6.05;;;2.63;;
36725;SDS011;44936;52.086;5.150;2023-07-22T04:29:21;5.88;;;2.63;;
36725;SDS011;44936;52.086;5.150;2023-07-22T04:31:46;8.32;;;2.92;;
36725;SDS011;44936;52.086;5.150;2023-07-22T04:34:11;8.48;;;2.97;;
36725;SDS011;44936;52.086;5.150;2023-07-22T04:36:37;6.47;;;2.42;;
36725;SDS011;44936;52.086;5.150;2023-07-22T04:39:03;6.57;;;2.20;;
36725;SDS011;44936;52.086;5.150;2023-07-22T04:41:30;6.88;;;2.70;;
36725;SDS011;44936;52.086;5.150;2023-07-22T04:43:56;5.88;;;2.35;;
36725;SDS011;44936;52.086;5.150;2023-07-22T04:46:23;7.72;;;2.90;;
36725;SDS011;44936;52.086;5.150;2023-07-22T04:48:49;5.47;;;2.38;;
36725;SDS011;44936;52.086;5.150;2023-07-22T04:51:14;5.97;;;2.70;;
36725;SDS011;44936;52.086;5.150;2023-07-22T04:53:40;8.52;;;2.58;;
36725;SDS011;44936;52.086;5.150;2023-07-22T04:56:05;8.02;;;2.70;;
36725;SDS011;44936;52.086;5.150;2023-07-22T04:58:30;10.30;;;3.13;;
36725;SDS011;44936;52.086;5.150;2023-07-22T05:00:56;8.27;;;2.13;;
36725;SDS011;44936;52.086;5.150;2023-07-22T05:03:21;7.32;;;2.85;;
36725;SDS011;44936;52.086;5.150;2023-07-22T05:05:50;7.35;;;2.70;;
36725;SDS011;44936;52.086;5.150;2023-07-22T05:08:15;10.43;;;3.40;;
36725;SDS011;44936;52.086;5.150;2023-07-22T05:10:42;9.73;;;3.40;;
36725;SDS011;44936;52.086;5.150;2023-07-22T05:13:07;6.95;;;2.97;;
36725;SDS011;44936;52.086;5.150;2023-07-22T05:15:33;9.45;;;3.67;;
36725;SDS011;44936;52.086;5.150;2023-07-22T05:17:58;9.55;;;2.70;;
36725;SDS011;44936;52.086;5.150;2023-07-22T05:20:23;10.23;;;3.72;;
36725;SDS011;44936;52.086;5.150;2023-07-22T05:22:49;8.70;;;3.42;;
36725;SDS011;44936;52.086;5.150;2023-07-22T05:25:14;8.57;;;2.80;;
36725;SDS011;44936;52.086;5.150;2023-07-22T05:27:40;11.13;;;3.45;;
36725;SDS011;44936;52.086;5.150;2023-07-22T05:30:06;13.43;;;3.60;;
36725;SDS011;44936;52.086;5.150;2023-07-22T05:32:32;10.70;;;3.72;;
36725;SDS011;44936;52.086;5.150;2023-07-22T05:34:57;9.75;;;3.28;;
36725;SDS011;44936;52.086;5.150;2023-07-22T05:37:23;16.58;;;4.03;;
36725;SDS011;44936;52.086;5.150;2023-07-22T05:39:49;12.52;;;4.07;;
36725;SDS011;44936;52.086;5.150;2023-07-22T05:42:15;11.38;;;3.35;;
36725;SDS011;44936;52.086;5.150;2023-07-22T05:44:41;11.82;;;4.00;;
36725;SDS011;44936;52.086;5.150;2023-07-22T05:47:07;12.27;;;4.22;;
36725;SDS011;44936;52.086;5.150;2023-07-22T05:49:32;12.40;;;4.03;;
36725;SDS011;44936;52.086;5.150;2023-07-22T05:51:57;17.15;;;3.97;;
36725;SDS011;44936;52.086;5.150;2023-07-22T05:54:23;13.93;;;3.85;;
36725;SDS011;44936;52.086;5.150;2023-07-22T05:56:48;12.73;;;4.78;;
36725;SDS011;44936;52.086;5.150;2023-07-22T05:59:13;11.73;;;4.10;;
36725;SDS011;44936;52.086;5.150;2023-07-22T06:01:39;13.45;;;4.32;;
36725;SDS011;44936;52.086;5.150;2023-07-22T06:04:04;12.48;;;4.13;;
36725;SDS011;44936;52.086;5.150;2023-07-22T06:06:30;13.93;;;3.95;;
36725;SDS011;44936;52.086;5.150;2023-07-22T06:08:55;8.88;;;3.72;;
36725;SDS011;44936;52.086;5.150;2023-07-22T06:11:21;11.77;;;3.97;;
36725;SDS011;44936;52.086;5.150;2023-07-22T06:13:46;12.93;;;4.68;;
36725;SDS011;44936;52.086;5.150;2023-07-22T06:16:12;11.48;;;4.07;;
36725;SDS011;44936;52.086;5.150;2023-07-22T06:18:37;12.07;;;3.85;;
36725;SDS011;44936;52.086;5.150;2023-07-22T06:21:03;15.85;;;4.50;;
36725;SDS011;44936;52.086;5.150;2023-07-22T06:23:29;13.75;;;4.55;;
36725;SDS011;44936;52.086;5.150;2023-07-22T06:25:54;13.38;;;3.83;;
36725;SDS011;44936;52.086;5.150;2023-07-22T06:28:19;11.25;;;3.97;;
36725;SDS011;44936;52.086;5.150;2023-07-22T06:30:44;11.77;;;3.55;;
36725;SDS011;44936;52.086;5.150;2023-07-22T06:33:10;10.35;;;3.60;;
36725;SDS011;44936;52.086;5.150;2023-07-22T06:35:35;13.43;;;4.28;;
36725;SDS011;44936;52.086;5.150;2023-07-22T06:38:00;13.13;;;4.25;;
36725;SDS011;44936;52.086;5.150;2023-07-22T06:40:26;13.95;;;4.60;;
36725;SDS011;44936;52.086;5.150;2023-07-22T06:42:51;10.77;;;3.72;;
36725;SDS011;44936;52.086;5.150;2023-07-22T06:45:16;10.63;;;3.80;;
36725;SDS011;44936;52.086;5.150;2023-07-22T06:47:42;12.88;;;4.32;;
36725;SDS011;44936;52.086;5.150;2023-07-22T06:50:08;15.27;;;4.45;;
36725;SDS011;44936;52.086;5.150;2023-07-22T06:52:33;12.63;;;4.43;;
36725;SDS011;44936;52.086;5.150;2023-07-22T06:54:59;11.45;;;3.85;;
36725;SDS011;44936;52.086;5.150;2023-07-22T06:57:24;13.30;;;4.35;;
36725;SDS011;44936;52.086;5.150;2023-07-22T06:59:53;14.15;;;4.10;;
36725;SDS011;44936;52.086;5.150;2023-07-22T07:02:19;13.77;;;4.25;;
36725;SDS011;44936;52.086;5.150;2023-07-22T07:04:44;10.52;;;3.85;;
36725;SDS011;44936;52.086;5.150;2023-07-22T07:07:10;15.13;;;4.30;;
36725;SDS011;44936;52.086;5.150;2023-07-22T07:09:37;12.20;;;3.65;;
36725;SDS011;44936;52.086;5.150;2023-07-22T07:12:03;11.95;;;3.47;;
36725;SDS011;44936;52.086;5.150;2023-07-22T07:14:28;11.70;;;3.88;;
36725;SDS011;44936;52.086;5.150;2023-07-22T07:16:54;11.15;;;3.17;;
36725;SDS011;44936;52.086;5.150;2023-07-22T07:19:19;13.38;;;4.18;;
36725;SDS011;44936;52.086;5.150;2023-07-22T07:21:45;13.40;;;3.38;;
36725;SDS011;44936;52.086;5.150;2023-07-22T07:24:10;12.27;;;4.25;;
36725;SDS011;44936;52.086;5.150;2023-07-22T07:26:35;12.65;;;3.88;;
36725;SDS011;44936;52.086;5.150;2023-07-22T07:29:01;12.25;;;3.78;;
36725;SDS011;44936;52.086;5.150;2023-07-22T07:31:26;12.85;;;4.20;;
36725;SDS011;44936;52.086;5.150;2023-07-22T07:33:52;10.70;;;4.07;;
36725;SDS011;44936;52.086;5.150;2023-07-22T07:36:17;10.65;;;3.55;;
36725;SDS011;44936;52.086;5.150;2023-07-22T07:38:43;13.73;;;3.70;;
36725;SDS011;44936;52.086;5.150;2023-07-22T07:41:08;10.95;;;3.72;;
36725;SDS011;44936;52.086;5.150;2023-07-22T07:43:36;12.82;;;3.65;;
36725;SDS011;44936;52.086;5.150;2023-07-22T07:46:14;7.82;;;3.13;;
36725;SDS011;44936;52.086;5.150;2023-07-22T07:48:42;9.13;;;3.20;;
36725;SDS011;44936;52.086;5.150;2023-07-22T07:51:12;11.82;;;4.22;;
36725;SDS011;44936;52.086;5.150;2023-07-22T07:53:43;11.15;;;3.40;;
36725;SDS011;44936;52.086;5.150;2023-07-22T07:56:09;9.75;;;3.08;;
36725;SDS011;44936;52.086;5.150;2023-07-22T07:58:36;11.23;;;3.33;;
36725;SDS011;44936;52.086;5.150;2023-07-22T08:01:02;9.55;;;2.97;;
36725;SDS011;44936;52.086;5.150;2023-07-22T08:03:28;9.65;;;3.95;;
36725;SDS011;44936;52.086;5.150;2023-07-22T08:05:53;10.10;;;3.67;;
36725;SDS011;44936;52.086;5.150;2023-07-22T08:08:19;7.93;;;3.10;;
36725;SDS011;44936;52.086;5.150;2023-07-22T08:10:44;8.93;;;3.22;;
36725;SDS011;44936;52.086;5.150;2023-07-22T08:13:10;9.98;;;3.80;;
36725;SDS011;44936;52.086;5.150;2023-07-22T08:15:35;10.05;;;3.28;;
36725;SDS011;44936;52.086;5.150;2023-07-22T08:18:01;7.97;;;2.90;;
36725;SDS011;44936;52.086;5.150;2023-07-22T08:20:26;8.52;;;3.10;;
36725;SDS011;44936;52.086;5.150;2023-07-22T08:22:52;8.40;;;3.60;;
36725;SDS011;44936;52.086;5.150;2023-07-22T08:25:17;10.52;;;3.08;;
36725;SDS011;44936;52.086;5.150;2023-07-22T08:27:42;10.48;;;3.60;;
36725;SDS011;44936;52.086;5.150;2023-07-22T08:30:08;8.50;;;3.42;;
36725;SDS011;44936;52.086;5.150;2023-07-22T08:32:34;7.05;;;2.60;;
36725;SDS011;44936;52.086;5.150;2023-07-22T08:34:59;10.38;;;3.65;;
36725;SDS011;44936;52.086;5.150;2023-07-22T08:37:24;9.15;;;2.75;;
36725;SDS011;44936;52.086;5.150;2023-07-22T08:39:50;9.15;;;3.08;;
36725;SDS011;44936;52.086;5.150;2023-07-22T08:42:15;8.75;;;3.63;;
36725;SDS011;44936;52.086;5.150;2023-07-22T08:44:43;7.88;;;2.70;;
36725;SDS011;44936;52.086;5.150;2023-07-22T08:47:14;11.23;;;3.28;;
36725;SDS011;44936;52.086;5.150;2023-07-22T08:49:43;8.35;;;2.60;;
36725;SDS011;44936;52.086;5.150;2023-07-22T08:52:14;6.50;;;2.78;;
36725;SDS011;44936;52.086;5.150;2023-07-22T08:54:40;7.45;;;2.50;;
36725;SDS011;44936;52.086;5.150;2023-07-22T08:57:07;4.82;;;2.55;;
36725;SDS011;44936;52.086;5.150;2023-07-22T08:59:34;4.80;;;2.08;;
36725;SDS011;44936;52.086;5.150;2023-07-22T09:02:00;6.18;;;2.03;;
36725;SDS011;44936;52.086;5.150;2023-07-22T09:04:26;6.32;;;2.20;;
36725;SDS011;44936;52.086;5.150;2023-07-22T09:06:51;6.53;;;2.00;;
36725;SDS011;44936;52.086;5.150;2023-07-22T09:09:18;8.73;;;2.47;;
36725;SDS011;44936;52.086;5.150;2023-07-22T09:11:44;7.13;;;2.22;;
36725;SDS011;44936;52.086;5.150;2023-07-22T09:14:10;3.75;;;2.08;;
36725;SDS011;44936;52.086;5.150;2023-07-22T09:16:36;6.00;;;2.20;;
36725;SDS011;44936;52.086;5.150;2023-07-22T09:19:03;5.50;;;1.85;;
36725;SDS011;44936;52.086;5.150;2023-07-22T09:21:29;4.80;;;2.10;;
36725;SDS011;44936;52.086;5.150;2023-07-22T09:23:54;4.28;;;2.13;;
36725;SDS011;44936;52.086;5.150;2023-07-22T09:26:20;8.13;;;2.50;;
36725;SDS011;44936;52.086;5.150;2023-07-22T09:28:53;7.60;;;2.33;;
36725;SDS011;44936;52.086;5.150;2023-07-22T09:31:23;5.63;;;2.22;;
36725;SDS011;44936;52.086;5.150;2023-07-22T09:33:50;4.75;;;2.65;;
36725;SDS011;44936;52.086;5.150;2023-07-22T09:36:15;5.57;;;2.35;;
36725;SDS011;44936;52.086;5.150;2023-07-22T09:38:41;4.00;;;1.98;;
36725;SDS011;44936;52.086;5.150;2023-07-22T09:41:06;4.93;;;1.83;;
36725;SDS011;44936;52.086;5.150;2023-07-22T09:43:37;5.10;;;1.60;;
36725;SDS011;44936;52.086;5.150;2023-07-22T09:46:10;4.82;;;2.47;;
36725;SDS011;44936;52.086;5.150;2023-07-22T09:48:39;3.78;;;1.73;;
36725;SDS011;44936;52.086;5.150;2023-07-22T09:51:06;4.45;;;1.80;;
36725;SDS011;44936;52.086;5.150;2023-07-22T09:53:37;3.40;;;1.80;;
36725;SDS011;44936;52.086;5.150;2023-07-22T09:56:05;3.40;;;1.90;;
36725;SDS011;44936;52.086;5.150;2023-07-22T09:58:31;5.63;;;2.03;;
36725;SDS011;44936;52.086;5.150;2023-07-22T10:00:58;4.38;;;2.08;;
36725;SDS011;44936;52.086;5.150;2023-07-22T10:03:26;3.10;;;1.63;;
36725;SDS011;44936;52.086;5.150;2023-07-22T10:05:54;4.35;;;1.80;;
36725;SDS011;44936;52.086;5.150;2023-07-22T10:08:20;3.67;;;1.63;;
36725;SDS011;44936;52.086;5.150;2023-07-22T10:10:46;3.55;;;1.70;;
36725;SDS011;44936;52.086;5.150;2023-07-22T10:13:16;4.55;;;1.65;;
36725;SDS011;44936;52.086;5.150;2023-07-22T10:15:42;2.00;;;1.30;;
36725;SDS011;44936;52.086;5.150;2023-07-22T10:18:08;3.28;;;1.52;;
36725;SDS011;44936;52.086;5.150;2023-07-22T10:20:35;2.42;;;1.45;;
36725;SDS011;44936;52.086;5.150;2023-07-22T10:23:01;2.50;;;1.55;;
36725;SDS011;44936;52.086;5.150;2023-07-22T10:25:28;3.80;;;1.40;;
36725;SDS011;44936;52.086;5.150;2023-07-22T10:27:54;1.77;;;1.30;;
36725;SDS011;44936;52.086;5.150;2023-07-22T10:30:20;3.85;;;1.65;;
36725;SDS011;44936;52.086;5.150;2023-07-22T10:32:46;2.13;;;1.48;;
36725;SDS011;44936;52.086;5.150;2023-07-22T10:35:33;2.72;;;1.40;;
36725;SDS011;44936;52.086;5.150;2023-07-22T10:38:14;3.47;;;1.80;;
36725;SDS011;44936;52.086;5.150;2023-07-22T10:40:48;4.80;;;1.60;;
36725;SDS011;44936;52.086;5.150;2023-07-22T10:43:16;3.55;;;1.52;;
36725;SDS011;44936;52.086;5.150;2023-07-22T10:45:52;4.38;;;1.63;;
36725;SDS011;44936;52.086;5.150;2023-07-22T10:48:19;2.53;;;1.27;;
36725;SDS011;44936;52.086;5.150;2023-07-22T10:50:46;3.45;;;1.83;;
36725;SDS011;44936;52.086;5.150;2023-07-22T10:53:14;4.68;;;1.63;;
36725;SDS011;44936;52.086;5.150;2023-07-22T10:58:32;3.67;;;1.10;;
36725;SDS011;44936;52.086;5.150;2023-07-22T11:06:56;3.10;;;1.58;;
36725;SDS011;44936;52.086;5.150;2023-07-22T11:11:58;2.97;;;1.55;;
36725;SDS011;44936;52.086;5.150;2023-07-22T11:14:30;5.15;;;1.38;;
36725;SDS011;44936;52.086;5.150;2023-07-22T11:17:09;3.85;;;1.58;;
36725;SDS011;44936;52.086;5.150;2023-07-22T11:19:36;3.72;;;1.77;;
36725;SDS011;44936;52.086;5.150;2023-07-22T11:22:01;4.95;;;1.80;;
36725;SDS011;44936;52.086;5.150;2023-07-22T11:24:28;1.80;;;1.20;;
36725;SDS011;44936;52.086;5.150;2023-07-22T11:26:54;2.33;;;1.50;;
36725;SDS011;44936;52.086;5.150;2023-07-22T11:29:19;2.78;;;1.52;;
36725;SDS011;44936;52.086;5.150;2023-07-22T11:31:46;3.55;;;1.48;;
36725;SDS011;44936;52.086;5.150;2023-07-22T11:34:13;3.08;;;1.40;;
36725;SDS011;44936;52.086;5.150;2023-07-22T11:36:46;1.77;;;1.20;;
36725;SDS011;44936;52.086;5.150;2023-07-22T11:39:17;2.42;;;1.30;;
36725;SDS011;44936;52.086;5.150;2023-07-22T11:41:44;4.90;;;1.25;;
36725;SDS011;44936;52.086;5.150;2023-07-22T11:44:11;5.30;;;1.58;;
36725;SDS011;44936;52.086;5.150;2023-07-22T11:49:38;6.68;;;1.50;;
36725;SDS011;44936;52.086;5.150;2023-07-22T11:52:08;3.58;;;1.45;;
36725;SDS011;44936;52.086;5.150;2023-07-22T11:54:39;3.05;;;1.30;;
36725;SDS011;44936;52.086;5.150;2023-07-22T11:57:21;3.00;;;1.60;;
36725;SDS011;44936;52.086;5.150;2023-07-22T11:59:48;3.22;;;1.70;;
36725;SDS011;44936;52.086;5.150;2023-07-22T12:02:22;4.63;;;1.42;;
36725;SDS011;44936;52.086;5.150;2023-07-22T12:04:59;2.22;;;1.40;;
36725;SDS011;44936;52.086;5.150;2023-07-22T12:07:26;5.45;;;1.73;;
36725;SDS011;44936;52.086;5.150;2023-07-22T12:10:03;5.18;;;1.70;;
36725;SDS011;44936;52.086;5.150;2023-07-22T12:12:32;4.68;;;1.63;;
36725;SDS011;44936;52.086;5.150;2023-07-22T12:15:11;3.35;;;1.77;;
36725;SDS011;44936;52.086;5.150;2023-07-22T12:17:45;3.45;;;1.73;;
36725;SDS011;44936;52.086;5.150;2023-07-22T12:20:18;5.03;;;2.00;;
36725;SDS011;44936;52.086;5.150;2023-07-22T12:22:44;2.33;;;1.60;;
36725;SDS011;44936;52.086;5.150;2023-07-22T12:25:10;2.13;;;1.38;;
36725;SDS011;44936;52.086;5.150;2023-07-22T12:27:36;3.03;;;1.55;;
36725;SDS011;44936;52.086;5.150;2023-07-22T12:30:02;3.80;;;1.70;;
36725;SDS011;44936;52.086;5.150;2023-07-22T12:32:28;4.88;;;1.55;;
36725;SDS011;44936;52.086;5.150;2023-07-22T12:34:53;4.25;;;2.00;;
36725;SDS011;44936;52.086;5.150;2023-07-22T12:37:19;6.88;;;1.77;;
36725;SDS011;44936;52.086;5.150;2023-07-22T12:39:44;3.42;;;1.98;;
36725;SDS011;44936;52.086;5.150;2023-07-22T12:42:10;4.60;;;1.67;;
36725;SDS011;44936;52.086;5.150;2023-07-22T12:44:36;2.75;;;1.42;;
36725;SDS011;44936;52.086;5.150;2023-07-22T12:47:01;5.15;;;1.60;;
36725;SDS011;44936;52.086;5.150;2023-07-22T12:49:27;3.88;;;1.60;;
36725;SDS011;44936;52.086;5.150;2023-07-22T12:51:52;4.75;;;1.73;;
36725;SDS011;44936;52.086;5.150;2023-07-22T12:54:17;3.22;;;1.60;;
36725;SDS011;44936;52.086;5.150;2023-07-22T12:56:43;4.10;;;1.30;;
36725;SDS011;44936;52.086;5.150;2023-07-22T12:59:08;4.28;;;1.80;;
36725;SDS011;44936;52.086;5.150;2023-07-22T13:01:34;3.30;;;1.10;;
36725;SDS011;44936;52.086;5.150;2023-07-22T13:04:01;1.70;;;1.10;;
36725;SDS011;44936;52.086;5.150;2023-07-22T13:06:26;2.67;;;1.20;;
36725;SDS011;44936;52.086;5.150;2023-07-22T13:08:51;1.95;;;1.13;;
36725;SDS011;44936;52.086;5.150;2023-07-22T13:11:17;2.30;;;0.93;;
36725;SDS011;44936;52.086;5.150;2023-07-22T13:13:42;1.77;;;0.93;;
36725;SDS011;44936;52.086;5.150;2023-07-22T13:16:07;3.88;;;1.08;;
36725;SDS011;44936;52.086;5.150;2023-07-22T13:18:33;1.50;;;0.88;;
36725;SDS011;44936;52.086;5.150;2023-07-22T13:20:58;1.42;;;0.90;;
36725;SDS011;44936;52.086;5.150;2023-07-22T13:23:23;4.38;;;1.10;;
36725;SDS011;44936;52.086;5.150;2023-07-22T13:25:49;5.03;;;1.30;;
36725;SDS011;44936;52.086;5.150;2023-07-22T13:28:14;2.05;;;1.13;;
36725;SDS011;44936;52.086;5.150;2023-07-22T13:30:39;2.58;;;1.00;;
36725;SDS011;44936;52.086;5.150;2023-07-22T13:33:05;2.13;;;0.95;;
36725;SDS011;44936;52.086;5.150;2023-07-22T13:35:30;1.55;;;0.95;;
36725;SDS011;44936;52.086;5.150;2023-07-22T13:37:55;1.27;;;1.00;;
36725;SDS011;44936;52.086;5.150;2023-07-22T13:40:21;4.90;;;1.20;;
36725;SDS011;44936;52.086;5.150;2023-07-22T13:42:47;3.47;;;0.95;;
36725;SDS011;44936;52.086;5.150;2023-07-22T13:45:12;2.45;;;0.75;;
36725;SDS011;44936;52.086;5.150;2023-07-22T13:47:37;2.35;;;1.02;;
36725;SDS011;44936;52.086;5.150;2023-07-22T13:50:03;0.65;;;0.65;;
36725;SDS011;44936;52.086;5.150;2023-07-22T13:52:28;1.52;;;0.70;;
36725;SDS011;44936;52.086;5.150;2023-07-22T13:54:54;1.02;;;0.70;;
36725;SDS011;44936;52.086;5.150;2023-07-22T13:57:19;0.77;;;0.68;;
36725;SDS011;44936;52.086;5.150;2023-07-22T13:59:44;2.35;;;0.95;;
36725;SDS011;44936;52.086;5.150;2023-07-22T14:02:10;3.38;;;1.08;;
36725;SDS011;44936;52.086;5.150;2023-07-22T14:04:35;1.85;;;0.80;;
36725;SDS011;44936;52.086;5.150;2023-07-22T14:07:01;1.60;;;0.80;;
36725;SDS011;44936;52.086;5.150;2023-07-22T14:09:27;2.58;;;0.82;;
36725;SDS011;44936;52.086;5.150;2023-07-22T14:11:52;3.00;;;1.20;;
36725;SDS011;44936;52.086;5.150;2023-07-22T14:14:17;2.70;;;0.95;;
36725;SDS011;44936;52.086;5.150;2023-07-22T14:16:43;3.17;;;1.20;;
36725;SDS011;44936;52.086;5.150;2023-07-22T14:19:08;1.30;;;0.90;;
36725;SDS011;44936;52.086;5.150;2023-07-22T14:21:33;1.90;;;0.90;;
36725;SDS011;44936;52.086;5.150;2023-07-22T14:23:59;1.65;;;1.00;;
36725;SDS011;44936;52.086;5.150;2023-07-22T14:26:24;3.03;;;1.00;;
36725;SDS011;44936;52.086;5.150;2023-07-22T14:28:49;0.82;;;0.70;;
36725;SDS011;44936;52.086;5.150;2023-07-22T14:31:16;1.05;;;0.88;;
36725;SDS011;44936;52.086;5.150;2023-07-22T14:33:41;0.70;;;0.70;;
36725;SDS011;44936;52.086;5.150;2023-07-22T14:36:06;1.45;;;0.80;;
36725;SDS011;44936;52.086;5.150;2023-07-22T14:38:32;0.88;;;0.77;;
36725;SDS011;44936;52.086;5.150;2023-07-22T14:40:57;2.80;;;0.80;;
36725;SDS011;44936;52.086;5.150;2023-07-22T14:43:22;1.00;;;0.70;;
36725;SDS011;44936;52.086;5.150;2023-07-22T14:45:48;2.08;;;0.90;;
36725;SDS011;44936;52.086;5.150;2023-07-22T14:48:14;1.63;;;0.90;;
36725;SDS011;44936;52.086;5.150;2023-07-22T14:50:39;1.08;;;0.80;;
36725;SDS011;44936;52.086;5.150;2023-07-22T14:53:04;1.17;;;0.82;;
36725;SDS011;44936;52.086;5.150;2023-07-22T14:55:30;0.90;;;0.82;;